Time;durP1;ratioP1;P1;durP2;ratioP2;P2;SDS_P1;SDS_P2;PMS_P1;PMS_P2;Temp;Humidity;BMP_temperature;BMP_pressure;BME280_temperature;BME280_humidity;BME280_pressure;Samples;Min_cycle;Max_cycle;Signal;HPM_P1;HPM_P2
2023/10/07 00:01:54;;;;;;;4.23;2.80;;;14.70;99.90;;;;;;5033986;28;20696;-73
2023/10/07 00:04:19;;;;;;;5.97;3.03;;;14.70;99.90;;;;;;5034109;28;20430;-74
2023/10/07 00:06:45;;;;;;;3.77;2.83;;;14.70;99.90;;;;;;5033951;28;20194;-74
2023/10/07 00:09:12;;;;;;;8.93;3.07;;;14.70;99.90;;;;;;5033864;28;20164;-73
2023/10/07 00:11:39;;;;;;;4.50;2.53;;;14.70;99.90;;;;;;5033892;28;20410;-74
2023/10/07 00:14:09;;;;;;;5.13;3.10;;;14.70;99.90;;;;;;5033902;28;20808;-74
2023/10/07 00:16:36;;;;;;;5.07;3.40;;;14.70;99.90;;;;;;5033760;28;20518;-74
2023/10/07 00:19:03;;;;;;;3.17;2.53;;;14.70;99.90;;;;;;5033674;28;20414;-74
2023/10/07 00:21:52;;;;;;;3.83;2.90;;;14.70;99.90;;;;;;5033782;28;20437;-73
2023/10/07 00:24:16;;;;;;;3.50;3.20;;;14.70;99.90;;;;;;5033570;28;20417;-74
2023/10/07 00:26:43;;;;;;;5.33;3.30;;;14.70;99.90;;;;;;5033545;28;20426;-73
2023/10/07 00:29:12;;;;;;;10.03;3.23;;;14.70;99.90;;;;;;5033439;28;20414;-76
2023/10/07 00:31:40;;;;;;;5.20;2.77;;;14.70;99.90;;;;;;5033329;28;20410;-73
2023/10/07 00:34:14;;;;;;;5.13;2.30;;;14.60;99.90;;;;;;5033343;28;20919;-73
2023/10/07 00:39:09;;;;;;;6.27;2.83;;;14.60;99.90;;;;;;5033471;28;20410;-73
2023/10/07 00:41:46;;;;;;;6.00;2.73;;;14.60;99.90;;;;;;5033379;28;20191;-73
2023/10/07 00:46:55;;;;;;;4.90;2.77;;;14.60;99.90;;;;;;5032981;28;20433;-73
2023/10/07 00:49:27;;;;;;;5.87;2.60;;;14.60;99.90;;;;;;5033040;28;20397;-73
2023/10/07 00:51:54;;;;;;;9.67;3.47;;;14.50;99.90;;;;;;5031696;28;20442;-74
2023/10/07 00:59:56;;;;;;;5.03;3.17;;;14.40;99.90;;;;;;5010793;28;20414;-73
2023/10/07 01:02:30;;;;;;;3.37;3.00;;;14.50;99.90;;;;;;5010933;28;20506;-74
2023/10/07 01:05:06;;;;;;;8.70;3.93;;;14.60;99.90;;;;;;5022884;28;20433;-73
2023/10/07 01:07:34;;;;;;;4.47;3.53;;;14.50;99.90;;;;;;5031540;28;20893;-74
2023/10/07 01:12:37;;;;;;;7.90;3.90;;;14.40;99.90;;;;;;5032920;28;20408;-73
2023/10/07 01:15:17;;;;;;;7.73;3.47;;;14.40;99.90;;;;;;5032593;28;20409;-74
2023/10/07 01:17:47;;;;;;;4.37;2.33;;;14.50;99.90;;;;;;5032897;28;20877;-74
2023/10/07 01:20:13;;;;;;;8.40;3.10;;;14.50;99.90;;;;;;5032594;28;20399;-74
2023/10/07 01:22:53;;;;;;;6.90;3.37;;;14.50;99.90;;;;;;5032462;28;20398;-74
2023/10/07 01:25:20;;;;;;;3.67;2.70;;;14.50;99.90;;;;;;5032612;28;20433;-74
2023/10/07 01:27:53;;;;;;;8.43;4.03;;;14.50;99.90;;;;;;5032114;28;20476;-76
2023/10/07 01:30:26;;;;;;;3.90;2.70;;;14.50;99.90;;;;;;5031230;28;20821;-74
2023/10/07 01:33:02;;;;;;;7.50;3.43;;;14.50;99.90;;;;;;5032187;28;20411;-74
2023/10/07 01:35:32;;;;;;;3.23;2.90;;;14.50;99.90;;;;;;5032168;28;20441;-73
2023/10/07 01:38:07;;;;;;;12.63;3.70;;;14.50;99.90;;;;;;5032146;28;20405;-74
2023/10/07 01:40:53;;;;;;;6.63;3.30;;;14.50;99.90;;;;;;5032338;28;20394;-73
2023/10/07 01:43:19;;;;;;;7.87;3.00;;;14.50;99.90;;;;;;5030937;28;20501;-73
2023/10/07 01:45:47;;;;;;;6.27;3.70;;;14.60;99.90;;;;;;5032020;28;20995;-73
2023/10/07 01:48:13;;;;;;;4.93;2.90;;;14.50;99.90;;;;;;5032065;28;20214;-73
2023/10/07 01:50:40;;;;;;;14.63;3.70;;;14.50;99.90;;;;;;5031946;28;20406;-73
2023/10/07 01:53:07;;;;;;;8.83;3.20;;;14.50;99.90;;;;;;5031798;28;20183;-74
2023/10/07 01:55:36;;;;;;;3.80;3.00;;;14.50;99.90;;;;;;5030720;28;20541;-74
2023/10/07 01:58:02;;;;;;;3.07;2.70;;;14.50;99.90;;;;;;5031251;28;20406;-75
2023/10/07 02:00:44;;;;;;;4.17;3.40;;;14.50;99.90;;;;;;5032018;28;20947;-74
2023/10/07 02:03:14;;;;;;;4.83;2.83;;;14.60;99.90;;;;;;5032016;28;20754;-74
2023/10/07 02:05:41;;;;;;;4.83;2.80;;;14.60;99.90;;;;;;5031777;28;20426;-74
2023/10/07 02:08:14;;;;;;;10.70;3.60;;;14.50;99.90;;;;;;5031769;28;20414;-74
2023/10/07 02:10:42;;;;;;;12.80;3.57;;;14.50;99.90;;;;;;5030660;28;20417;-74
2023/10/07 02:13:14;;;;;;;5.10;2.93;;;14.50;99.90;;;;;;5031641;28;20402;-73
2023/10/07 02:15:43;;;;;;;3.00;2.60;;;14.60;99.90;;;;;;5031725;28;20450;-74
2023/10/07 02:18:15;;;;;;;6.10;3.33;;;14.60;99.90;;;;;;5031740;28;20644;-74
2023/10/07 02:21:07;;;;;;;4.73;2.90;;;14.50;99.90;;;;;;5031805;28;20878;-74
2023/10/07 02:23:54;;;;;;;4.43;3.40;;;14.50;99.90;;;;;;5031849;28;20398;-74
2023/10/07 02:26:20;;;;;;;5.37;2.43;;;14.50;99.90;;;;;;5031604;28;20426;-74
2023/10/07 02:28:51;;;;;;;5.13;2.87;;;14.50;99.90;;;;;;5030242;28;20943;-73
2023/10/07 02:31:20;;;;;;;4.43;3.00;;;14.50;99.90;;;;;;5031667;28;20174;-74
2023/10/07 02:33:51;;;;;;;6.07;3.47;;;14.50;99.90;;;;;;5031701;28;20410;-73
2023/10/07 02:39:00;;;;;;;3.83;2.80;;;14.30;99.90;;;;;;5031531;28;20394;-73
2023/10/07 02:41:26;;;;;;;6.33;3.83;;;14.30;99.90;;;;;;5031643;28;20793;-74
2023/10/07 02:43:51;;;;;;;8.30;3.60;;;14.30;99.90;;;;;;5031648;28;20405;-74
2023/10/07 02:46:31;;;;;;;5.67;3.40;;;14.30;99.90;;;;;;5031587;28;20187;-74
2023/10/07 02:49:09;;;;;;;6.50;3.57;;;14.40;99.90;;;;;;5031382;28;20186;-74
2023/10/07 02:51:55;;;;;;;6.73;3.87;;;14.30;99.90;;;;;;5031513;28;20408;-74
2023/10/07 02:54:21;;;;;;;5.90;4.30;;;14.40;99.90;;;;;;5031378;28;20441;-74
2023/10/07 02:56:55;;;;;;;4.13;3.67;;;14.40;99.90;;;;;;5031289;28;20821;-74
2023/10/07 02:59:27;;;;;;;6.43;4.03;;;14.40;99.90;;;;;;5030048;28;21009;-74
2023/10/07 03:05:14;;;;;;;7.87;4.47;;;14.40;99.90;;;;;;5009265;28;20515;-73
2023/10/07 03:07:49;;;;;;;7.17;4.90;;;14.30;99.90;;;;;;5027957;28;20410;-74
2023/10/07 03:10:18;;;;;;;4.47;3.80;;;14.40;99.90;;;;;;5032331;28;20412;-74
2023/10/07 03:12:49;;;;;;;7.03;4.33;;;14.40;99.90;;;;;;5035012;28;20501;-73
2023/10/07 03:15:29;;;;;;;6.63;4.43;;;14.50;99.90;;;;;;5034833;28;20433;-73
2023/10/07 03:17:55;;;;;;;10.03;3.47;;;14.50;99.90;;;;;;5034848;28;20532;-73
2023/10/07 03:20:28;;;;;;;5.43;4.23;;;14.60;99.90;;;;;;5034847;28;20497;-73
2023/10/07 03:23:25;;;;;;;8.10;4.20;;;14.60;99.90;;;;;;5034837;28;20398;-75
2023/10/07 03:28:22;;;;;;;4.47;2.70;;;14.70;99.90;;;;;;5034825;28;20438;-74
2023/10/07 03:30:51;;;;;;;6.17;4.10;;;14.80;99.90;;;;;;5034764;28;20420;-74
2023/10/07 03:33:42;;;;;;;7.37;4.70;;;14.80;99.90;;;;;;5034694;28;20411;-73
2023/10/07 03:36:09;;;;;;;7.83;4.63;;;14.80;99.90;;;;;;5034556;28;20960;-74
2023/10/07 03:38:35;;;;;;;7.30;4.63;;;14.80;99.90;;;;;;5033056;28;20406;-74
2023/10/07 03:41:06;;;;;;;5.30;4.23;;;14.90;99.90;;;;;;5034626;28;20406;-74
2023/10/07 03:43:34;;;;;;;8.97;4.50;;;15.00;99.90;;;;;;5034528;28;20484;-74
2023/10/07 03:46:00;;;;;;;10.80;5.00;;;15.00;99.90;;;;;;5034260;28;20826;-74
2023/10/07 03:48:31;;;;;;;9.83;5.40;;;15.00;99.90;;;;;;5034301;28;20421;-74
2023/10/07 03:51:12;;;;;;;10.60;5.57;;;15.10;99.90;;;;;;5034394;28;20170;-74
2023/10/07 03:53:47;;;;;;;8.03;4.83;;;15.10;99.90;;;;;;5034158;28;20434;-74
2023/10/07 03:56:16;;;;;;;7.80;5.00;;;15.20;99.90;;;;;;5034101;28;20449;-74
2023/10/07 03:58:43;;;;;;;9.67;4.00;;;15.30;99.90;;;;;;5033968;28;20460;-74
2023/10/07 04:01:19;;;;;;;9.60;4.47;;;15.30;99.90;;;;;;5034209;28;20390;-74
2023/10/07 04:03:52;;;;;;;7.27;4.90;;;15.30;99.90;;;;;;5034199;28;20412;-74
2023/10/07 04:06:19;;;;;;;7.87;5.40;;;15.40;99.90;;;;;;5033986;28;20840;-74
2023/10/07 04:08:54;;;;;;;8.13;4.33;;;15.40;99.90;;;;;;5033842;28;20418;-74
2023/10/07 04:11:25;;;;;;;6.37;4.33;;;15.40;99.90;;;;;;5034055;28;20525;-73
2023/10/07 04:13:55;;;;;;;4.17;3.77;;;15.40;99.90;;;;;;5033969;28;20403;-74
2023/10/07 04:16:24;;;;;;;6.30;3.83;;;15.50;99.90;;;;;;5033802;28;20873;-74
2023/10/07 04:18:50;;;;;;;5.13;3.87;;;15.40;99.90;;;;;;5033462;28;20796;-74
2023/10/07 04:21:16;;;;;;;9.30;4.67;;;15.50;99.90;;;;;;5033246;28;20398;-74
2023/10/07 04:23:45;;;;;;;9.30;3.87;;;15.50;99.90;;;;;;5033623;28;20403;-73
2023/10/07 04:26:19;;;;;;;4.57;3.60;;;15.50;99.90;;;;;;5032217;28;20195;-74
2023/10/07 04:28:53;;;;;;;7.93;4.33;;;15.50;99.90;;;;;;5032290;28;20414;-74
2023/10/07 04:31:29;;;;;;;5.33;3.53;;;15.50;99.90;;;;;;5032382;28;20410;-74
2023/10/07 04:33:55;;;;;;;7.30;5.00;;;15.60;99.90;;;;;;5033541;28;20402;-74
2023/10/07 04:36:33;;;;;;;6.77;4.87;;;15.60;99.90;;;;;;5033255;28;20504;-74
2023/10/07 04:39:08;;;;;;;10.33;4.70;;;15.60;99.90;;;;;;5033371;28;20456;-74
2023/10/07 04:41:36;;;;;;;5.53;3.97;;;15.60;99.90;;;;;;5033474;28;20398;-73
2023/10/07 04:44:20;;;;;;;8.00;4.70;;;15.60;99.90;;;;;;5033452;28;20897;-74
2023/10/07 04:46:55;;;;;;;3.90;3.47;;;15.60;99.90;;;;;;5033180;28;20436;-74
2023/10/07 04:49:26;;;;;;;4.67;4.23;;;15.60;99.90;;;;;;5033198;28;20754;-73
2023/10/07 04:51:55;;;;;;;6.33;4.13;;;15.50;99.90;;;;;;5033098;28;20403;-74
2023/10/07 04:54:20;;;;;;;4.90;3.97;;;15.50;99.90;;;;;;5031791;28;20451;-75
2023/10/07 04:56:53;;;;;;;6.57;4.50;;;15.50;99.90;;;;;;5033473;28;20473;-74
2023/10/07 04:59:18;;;;;;;6.07;4.60;;;15.50;99.90;;;;;;5032917;28;20504;-74
2023/10/07 05:01:48;;;;;;;7.07;3.77;;;15.50;99.90;;;;;;5032918;28;20409;-74
2023/10/07 05:04:15;;;;;;;12.87;4.50;;;15.50;99.90;;;;;;5033068;28;20168;-74
2023/10/07 05:06:43;;;;;;;12.60;5.57;;;15.50;99.90;;;;;;5032746;28;20418;-74
2023/10/07 05:09:09;;;;;;;8.30;4.50;;;15.60;99.90;;;;;;5032615;28;20406;-74
2023/10/07 05:11:42;;;;;;;6.57;4.83;;;15.50;99.90;;;;;;5032787;28;20406;-74
2023/10/07 05:14:10;;;;;;;5.77;3.80;;;15.50;99.90;;;;;;5032192;28;20845;-74
2023/10/07 05:16:36;;;;;;;5.33;3.80;;;15.50;99.90;;;;;;5030642;28;20457;-74
2023/10/07 05:19:03;;;;;;;5.00;4.10;;;15.60;99.90;;;;;;5032529;28;20404;-73
2023/10/07 05:21:31;;;;;;;7.17;4.73;;;15.70;99.90;;;;;;5032586;28;20437;-73
2023/10/07 05:24:01;;;;;;;9.33;4.40;;;15.60;99.90;;;;;;5032556;28;20914;-74
2023/10/07 05:26:30;;;;;;;10.73;4.47;;;15.60;99.90;;;;;;5032566;28;20916;-74
2023/10/07 05:29:01;;;;;;;9.07;5.90;;;15.60;99.90;;;;;;5032385;28;20402;-74
2023/10/07 05:31:30;;;;;;;5.23;4.27;;;15.60;99.90;;;;;;5032357;28;20406;-74
2023/10/07 05:33:58;;;;;;;5.80;4.27;;;15.60;99.90;;;;;;5031621;28;20808;-74
2023/10/07 05:36:29;;;;;;;6.20;3.97;;;15.60;99.90;;;;;;5032160;28;20524;-74
2023/10/07 05:38:55;;;;;;;8.63;4.67;;;15.60;99.90;;;;;;5030865;28;20453;-74
2023/10/07 05:41:25;;;;;;;6.97;3.77;;;15.60;99.90;;;;;;5032270;28;20395;-74
2023/10/07 05:43:51;;;;;;;7.97;3.97;;;15.50;99.90;;;;;;5031126;28;20402;-74
2023/10/07 05:46:20;;;;;;;9.27;3.50;;;15.50;99.90;;;;;;5032151;28;20426;-74
2023/10/07 05:48:47;;;;;;;4.73;3.53;;;15.60;99.90;;;;;;5032119;28;20785;-74
2023/10/07 05:51:13;;;;;;;4.73;3.63;;;15.60;99.90;;;;;;5032142;28;20410;-74
2023/10/07 05:53:42;;;;;;;5.97;3.53;;;15.70;99.90;;;;;;5030884;28;20422;-74
2023/10/07 05:56:09;;;;;;;5.17;3.90;;;15.70;99.90;;;;;;5031957;28;20536;-74
2023/10/07 05:58:39;;;;;;;5.73;3.53;;;15.70;99.90;;;;;;5030647;28;20411;-74
2023/10/07 06:01:06;;;;;;;4.53;3.90;;;15.70;99.90;;;;;;5030704;28;21015;-75
2023/10/07 06:03:32;;;;;;;3.87;3.40;;;15.70;99.90;;;;;;5031842;28;20453;-74
2023/10/07 06:05:58;;;;;;;8.83;4.30;;;15.70;99.90;;;;;;5031719;28;20799;-74
2023/10/07 06:08:28;;;;;;;6.23;4.00;;;15.80;99.90;;;;;;5031816;28;20403;-74
2023/10/07 06:10:56;;;;;;;3.53;2.77;;;15.90;99.90;;;;;;5032010;28;20167;-74
2023/10/07 06:13:29;;;;;;;5.80;3.20;;;16.10;99.90;;;;;;5030607;28;20792;-75
2023/10/07 06:15:55;;;;;;;6.53;4.07;;;16.10;99.90;;;;;;5031757;28;20833;-74
2023/10/07 06:18:21;;;;;;;5.40;4.13;;;16.20;99.90;;;;;;5031646;28;20422;-74
2023/10/07 06:20:47;;;;;;;7.50;6.07;;;16.30;99.90;;;;;;5031862;28;20407;-74
2023/10/07 06:23:14;;;;;;;11.27;4.37;;;16.30;99.90;;;;;;5031760;28;20931;-74
2023/10/07 06:25:51;;;;;;;5.03;2.97;;;16.40;99.90;;;;;;5030654;28;20278;-74
2023/10/07 06:30:56;;;;;;;4.27;3.13;;;16.60;99.90;;;;;;5031882;28;20409;-76
2023/10/07 06:33:23;;;;;;;10.90;4.17;;;16.70;99.90;;;;;;5031973;28;20901;-74
2023/10/07 06:35:51;;;;;;;6.33;3.10;;;16.70;99.90;;;;;;5031478;28;20454;-75
2023/10/07 06:38:20;;;;;;;9.60;3.70;;;16.80;99.90;;;;;;5031460;28;20425;-74
2023/10/07 06:40:45;;;;;;;4.43;2.83;;;17.00;99.90;;;;;;5031603;28;20402;-74
2023/10/07 06:43:14;;;;;;;4.33;2.90;;;17.00;99.90;;;;;;5031470;28;20545;-75
2023/10/07 06:45:44;;;;;;;7.10;3.93;;;17.00;99.90;;;;;;5034618;28;20251;-74
2023/10/07 06:48:11;;;;;;;8.17;3.47;;;17.00;99.90;;;;;;5034107;28;20418;-74
2023/10/07 06:50:41;;;;;;;4.50;2.83;;;16.90;99.90;;;;;;5035536;28;20464;-74
2023/10/07 06:53:11;;;;;;;8.13;3.00;;;17.00;99.90;;;;;;5035330;28;20442;-75
2023/10/07 06:55:41;;;;;;;5.47;3.47;;;16.90;99.90;;;;;;5035839;28;20449;-70
2023/10/07 06:58:07;;;;;;;10.17;3.70;;;17.00;99.90;;;;;;5035156;28;20402;-72
2023/10/07 07:01:22;;;;;;;6.03;3.10;;;17.00;99.90;;;;;;5035318;28;20777;-72
2023/10/07 07:03:18;;;;;;;3.40;3.10;;;17.00;99.90;;;;;;5031114;28;20175;-71
2023/10/07 07:05:48;;;;;;;7.73;3.27;;;17.00;99.90;;;;;;5035116;28;20514;-72
2023/10/07 07:08:13;;;;;;;5.60;3.20;;;17.00;99.90;;;;;;5035030;28;20642;-73
2023/10/07 07:10:40;;;;;;;6.07;3.13;;;17.10;99.90;;;;;;5035178;28;20493;-72
2023/10/07 07:13:13;;;;;;;6.57;3.33;;;17.10;99.90;;;;;;5035001;28;20254;-73
2023/10/07 07:15:41;;;;;;;3.03;2.73;;;17.20;99.90;;;;;;5034862;28;20475;-71
2023/10/07 07:18:08;;;;;;;5.87;3.17;;;17.20;99.90;;;;;;5034727;28;20425;-72
2023/10/07 07:20:48;;;;;;;2.87;2.60;;;17.30;99.90;;;;;;5034989;28;20921;-72
2023/10/07 07:23:16;;;;;;;7.07;3.10;;;17.40;99.90;;;;;;5034933;28;20509;-73
2023/10/07 07:25:43;;;;;;;7.43;3.00;;;17.70;99.90;;;;;;5034767;28;20472;-71
2023/10/07 07:28:13;;;;;;;6.60;2.97;;;17.90;99.90;;;;;;5034690;28;20938;-72
2023/10/07 07:30:39;;;;;;;10.43;8.63;;;18.30;99.90;;;;;;5034881;28;20410;-72
2023/10/07 07:33:07;;;;;;;6.33;3.40;;;18.80;99.90;;;;;;5034741;28;20410;-71
2023/10/07 07:35:40;;;;;;;6.07;2.70;;;19.20;99.90;;;;;;5034524;28;20227;-71
2023/10/07 07:38:17;;;;;;;3.90;2.83;;;19.40;99.90;;;;;;5034610;28;20899;-71
2023/10/07 07:40:43;;;;;;;4.80;2.70;;;19.60;99.90;;;;;;5034742;28;20911;-69
2023/10/07 07:43:09;;;;;;;6.17;2.90;;;19.60;99.90;;;;;;5034632;28;20895;-70
2023/10/07 07:45:35;;;;;;;3.27;2.60;;;19.50;99.90;;;;;;5034553;28;20448;-70
2023/10/07 07:48:05;;;;;;;7.30;2.80;;;19.50;99.90;;;;;;5034265;28;20631;-71
2023/10/07 07:50:35;;;;;;;5.30;2.87;;;19.50;99.90;;;;;;5034437;28;20456;-68
2023/10/07 07:53:06;;;;;;;3.77;2.77;;;19.50;99.90;;;;;;5034493;28;20399;-68
2023/10/07 07:55:43;;;;;;;5.30;2.73;;;19.40;99.90;;;;;;5032302;28;20941;-69
2023/10/07 07:58:10;;;;;;;3.67;2.43;;;19.30;99.90;;;;;;5034075;28;20406;-69
2023/10/07 08:00:44;;;;;;;4.40;3.00;;;19.30;99.90;;;;;;5034256;28;20452;-69
2023/10/07 08:03:10;;;;;;;4.30;2.83;;;19.20;99.90;;;;;;5033152;28;20413;-70
2023/10/07 08:05:42;;;;;;;5.43;2.90;;;19.20;99.90;;;;;;5034067;28;20436;-70
2023/10/07 08:08:18;;;;;;;4.33;2.80;;;19.20;99.90;;;;;;5033922;28;20421;-70
2023/10/07 08:10:44;;;;;;;12.70;3.03;;;19.10;99.90;;;;;;5034103;28;20502;-70
2023/10/07 08:13:10;;;;;;;3.07;2.20;;;19.20;99.90;;;;;;5034000;28;20406;-70
2023/10/07 08:15:47;;;;;;;6.23;2.97;;;19.30;99.90;;;;;;5033978;28;20480;-70
2023/10/07 08:18:13;;;;;;;8.33;2.47;;;19.30;99.90;;;;;;5033763;28;20210;-70
2023/10/07 08:20:44;;;;;;;4.63;2.43;;;19.20;99.90;;;;;;5034055;28;20752;-70
2023/10/07 08:23:22;;;;;;;8.30;2.70;;;19.00;99.90;;;;;;5033752;28;20480;-70
2023/10/07 08:26:23;;;;;;;4.70;2.50;;;18.90;99.90;;;;;;5050789;28;20438;-69
2023/10/07 08:29:13;;;;;;;3.43;2.43;;;18.90;99.90;;;;;;5057369;28;20409;-68
2023/10/07 08:32:34;;;;;;;5.50;2.27;;;18.80;99.90;;;;;;5059229;28;20406;-68
2023/10/07 08:35:18;;;;;;;3.63;2.57;;;18.90;99.90;;;;;;5058982;28;20405;-67
2023/10/07 08:41:10;;;;;;;3.13;2.53;;;19.10;99.90;;;;;;5059036;28;20417;-68
2023/10/07 08:43:44;;;;;;;3.47;2.13;;;20.30;99.90;;;;;;5057834;28;20419;-68
2023/10/07 08:46:39;;;;;;;4.50;2.20;;;21.60;99.90;;;;;;5056277;28;20430;-68
2023/10/07 08:52:16;;;;;;;3.93;2.90;;;23.80;99.90;;;;;;5058266;28;20445;-69
2023/10/07 08:54:47;;;;;;;7.93;3.80;;;24.40;99.90;;;;;;5057454;28;20433;-68
2023/10/07 08:57:18;;;;;;;3.30;2.30;;;24.50;99.90;;;;;;5041082;28;20532;-70
2023/10/07 08:59:52;;;;;;;5.37;3.00;;;24.70;99.90;;;;;;5033160;28;20406;-71
2023/10/07 09:02:27;;;;;;;4.20;2.93;;;24.90;99.90;;;;;;5031767;28;20414;-68
2023/10/07 09:04:55;;;;;;;7.30;2.37;;;24.90;99.90;;;;;;5031603;28;20413;-69
2023/10/07 09:07:21;;;;;;;12.30;3.93;;;24.30;99.90;;;;;;5031567;28;20418;-70
2023/10/07 09:09:48;;;;;;;2.50;2.10;;;24.60;99.90;;;;;;5032886;28;20406;-69
2023/10/07 09:12:28;;;;;;;3.80;2.77;;;25.80;99.90;;;;;;5032832;28;20406;-69
2023/10/07 09:14:57;;;;;;;3.73;2.70;;;26.30;99.90;;;;;;5031574;28;20479;-70
2023/10/07 09:17:26;;;;;;;7.43;2.67;;;27.20;97.60;;;;;;5031395;28;20869;-70
2023/10/07 09:19:53;;;;;;;4.00;2.93;;;28.20;94.50;;;;;;5033008;28;20399;-70
2023/10/07 09:22:24;;;;;;;7.20;3.20;;;29.70;83.10;;;;;;5031452;28;20429;-71
2023/10/07 09:25:08;;;;;;;3.67;2.50;;;30.80;70.30;;;;;;5032766;28;20485;-71
2023/10/07 09:27:36;;;;;;;4.07;3.30;;;31.90;62.60;;;;;;5031266;28;20449;-69
2023/10/07 09:32:55;;;;;;;4.27;2.77;;;33.50;54.00;;;;;;5032611;28;20433;-71
2023/10/07 09:35:22;;;;;;;5.87;3.20;;;34.70;49.70;;;;;;5032245;28;20425;-71
2023/10/07 09:37:53;;;;;;;4.37;2.77;;;35.50;48.30;;;;;;5034897;28;20777;-70
2023/10/07 09:43:19;;;;;;;102.60;71.00;;;36.80;43.20;;;;;;5032345;28;20771;-68
2023/10/07 09:45:52;;;;;;;114.67;80.47;;;38.00;41.20;;;;;;5032104;28;20433;-69
2023/10/07 09:48:31;;;;;;;78.63;63.73;;;38.40;37.70;;;;;;5032102;28;20483;-69
2023/10/07 09:50:59;;;;;;;343.20;299.83;;;38.80;36.70;;;;;;5032247;28;20401;-69
2023/10/07 09:53:37;;;;;;;88.53;79.40;;;39.40;36.90;;;;;;5036988;28;20417;-71
2023/10/07 09:56:11;;;;;;;105.40;95.90;;;40.00;36.30;;;;;;5045079;28;20454;-70
2023/10/07 09:59:13;;;;;;;8.53;7.70;;;40.60;34.00;;;;;;5044094;28;20932;-71
2023/10/07 10:02:24;;;;;;;7.20;5.47;;;41.70;33.40;;;;;;5045036;28;20711;-70
2023/10/07 10:05:00;;;;;;;5.67;4.20;;;42.70;30.60;;;;;;5043760;28;20403;-70
2023/10/07 10:08:08;;;;;;;4.67;3.23;;;43.50;29.30;;;;;;5041944;28;20416;-69
2023/10/07 10:10:35;;;;;;;5.93;3.70;;;43.20;28.50;;;;;;5040798;28;20440;-69
2023/10/07 10:18:31;;;;;;;31.57;14.60;;;40.10;29.00;;;;;;5043049;28;20175;-70
2023/10/07 10:21:05;;;;;;;4.77;4.17;;;38.60;30.70;;;;;;5043753;28;20414;-70
2023/10/07 10:23:35;;;;;;;11.10;6.23;;;37.30;31.50;;;;;;5029724;28;20430;-70
2023/10/07 10:26:44;;;;;;;6.17;3.90;;;37.00;33.00;;;;;;5030740;28;20450;-70
2023/10/07 10:29:04;;;;;;;7.67;5.70;;;37.20;33.50;;;;;;5043149;28;20418;-69
2023/10/07 10:31:32;;;;;;;4.93;4.03;;;38.50;33.60;;;;;;5044355;28;20414;-69
2023/10/07 10:33:59;;;;;;;3.77;3.47;;;39.40;31.70;;;;;;5042241;28;20421;-71
2023/10/07 10:36:25;;;;;;;3.87;3.10;;;40.70;30.50;;;;;;5022670;28;20568;-70
2023/10/07 10:38:50;;;;;;;9.50;8.60;;;42.40;30.90;;;;;;5035557;28;20986;-71
2023/10/07 10:41:36;;;;;;;13.27;11.97;;;44.10;30.20;;;;;;5036066;28;20582;-71
2023/10/07 10:44:03;;;;;;;19.87;17.87;;;45.90;29.80;;;;;;5034033;28;20179;-71
2023/10/07 10:46:44;;;;;;;6.53;4.80;;;47.00;26.50;;;;;;5037811;28;20426;-71
2023/10/07 10:49:13;;;;;;;6.50;5.90;;;46.20;25.40;;;;;;5039021;28;20400;-71
2023/10/07 10:51:45;;;;;;;6.13;3.60;;;46.10;26.00;;;;;;5036532;28;20449;-71
2023/10/07 10:54:12;;;;;;;6.90;6.03;;;46.20;25.20;;;;;;5038389;28;20471;-71
2023/10/07 10:56:47;;;;;;;3.87;3.47;;;47.00;26.20;;;;;;5036785;28;21015;-71
2023/10/07 10:59:14;;;;;;;5.50;3.00;;;46.90;24.10;;;;;;5036460;28;20762;-70
2023/10/07 11:01:43;;;;;;;8.20;7.57;;;46.40;24.10;;;;;;5033343;28;20389;-70
2023/10/07 11:04:15;;;;;;;3.77;3.47;;;46.70;24.90;;;;;;5035328;28;20460;-71
2023/10/07 11:06:41;;;;;;;6.20;5.70;;;46.30;24.20;;;;;;5032381;28;20405;-70
2023/10/07 11:09:09;;;;;;;6.20;5.70;;;46.90;25.10;;;;;;5032559;28;20407;-71
2023/10/07 11:11:35;;;;;;;6.53;3.73;;;46.80;23.40;;;;;;5032146;28;20164;-71
2023/10/07 11:14:09;;;;;;;4.80;4.27;;;45.70;24.30;;;;;;5031779;28;20441;-70
2023/10/07 11:16:46;;;;;;;4.20;3.67;;;46.30;24.40;;;;;;5031799;28;20459;-69
2023/10/07 11:19:11;;;;;;;7.37;6.67;;;46.00;23.80;;;;;;5032127;28;20385;-71
2023/10/07 11:21:44;;;;;;;4.10;3.10;;;46.30;24.50;;;;;;5032295;28;20423;-70
2023/10/07 11:24:14;;;;;;;3.57;3.27;;;46.50;24.20;;;;;;5032161;28;20171;-71
2023/10/07 11:26:42;;;;;;;5.20;2.80;;;46.40;23.40;;;;;;5030326;28;20931;-70
2023/10/07 11:29:13;;;;;;;3.90;3.53;;;46.00;23.60;;;;;;5030396;28;20433;-71
2023/10/07 11:31:41;;;;;;;5.57;2.63;;;45.20;23.40;;;;;;5033860;28;20421;-71
2023/10/07 11:34:08;;;;;;;3.20;2.83;;;44.90;24.50;;;;;;5036168;28;20443;-71
2023/10/07 11:36:47;;;;;;;2.90;2.60;;;45.90;24.80;;;;;;5037124;28;20453;-70
2023/10/07 11:39:15;;;;;;;3.40;3.10;;;46.70;23.10;;;;;;5036259;28;20770;-70
2023/10/07 11:41:44;;;;;;;5.27;2.90;;;46.90;22.50;;;;;;5035337;28;20429;-71
2023/10/07 11:44:15;;;;;;;6.90;3.10;;;47.00;22.70;;;;;;5035479;28;20381;-70
2023/10/07 11:46:43;;;;;;;3.23;2.87;;;47.10;22.50;;;;;;5037225;28;20401;-70
2023/10/07 11:49:08;;;;;;;3.30;3.00;;;46.30;22.80;;;;;;5037935;28;20385;-70
2023/10/07 11:51:34;;;;;;;8.77;7.70;;;46.60;23.00;;;;;;5036693;28;20384;-71
2023/10/07 11:54:00;;;;;;;6.90;6.20;;;47.00;22.60;;;;;;5036458;28;20171;-70
2023/10/07 11:56:27;;;;;;;41.10;27.63;;;47.70;22.80;;;;;;5036619;28;20592;-69
2023/10/07 11:58:53;;;;;;;18.53;14.47;;;47.60;21.80;;;;;;5036388;28;20218;-70
2023/10/07 12:01:20;;;;;;;12.43;9.83;;;47.10;22.30;;;;;;5035576;28;20436;-70
2023/10/07 12:03:46;;;;;;;4.03;3.73;;;46.90;22.10;;;;;;5034078;28;20433;-70
2023/10/07 12:06:12;;;;;;;3.83;3.43;;;45.90;22.10;;;;;;5034736;28;20458;-70
2023/10/07 12:08:38;;;;;;;4.50;4.20;;;45.50;22.70;;;;;;5034666;28;20420;-69
2023/10/07 12:11:05;;;;;;;5.53;3.90;;;44.90;22.50;;;;;;5035534;28;20173;-69
2023/10/07 12:13:31;;;;;;;3.90;3.40;;;44.40;23.00;;;;;;5033949;28;20389;-71
2023/10/07 12:15:57;;;;;;;3.17;2.87;;;44.20;23.80;;;;;;5034967;28;20527;-70
2023/10/07 12:18:22;;;;;;;3.17;2.30;;;44.50;23.70;;;;;;5034942;28;20557;-70
2023/10/07 12:20:50;;;;;;;4.90;2.60;;;45.20;24.10;;;;;;5034198;28;20623;-70
2023/10/07 12:23:15;;;;;;;3.87;2.90;;;44.70;22.80;;;;;;5035928;28;20160;-70
2023/10/07 12:25:41;;;;;;;14.30;11.90;;;44.90;23.10;;;;;;5035675;28;20780;-70
2023/10/07 12:28:08;;;;;;;24.33;18.27;;;44.60;23.30;;;;;;5035154;28;20168;-70
2023/10/07 12:30:34;;;;;;;16.87;15.10;;;44.80;24.30;;;;;;5036036;28;20274;-70
2023/10/07 12:33:00;;;;;;;27.50;22.90;;;45.70;24.10;;;;;;5035837;28;20381;-70
2023/10/07 12:35:30;;;;;;;18.00;13.53;;;46.10;23.00;;;;;;5035255;28;20949;-70
2023/10/07 12:37:56;;;;;;;6.17;5.57;;;46.30;22.80;;;;;;5035554;28;20156;-70
2023/10/07 12:40:21;;;;;;;3.10;2.90;;;46.80;22.00;;;;;;5034812;28;20761;-70
2023/10/07 12:42:52;;;;;;;3.73;2.77;;;45.00;22.10;;;;;;5035271;28;20195;-70
2023/10/07 12:45:18;;;;;;;6.50;3.27;;;43.10;22.70;;;;;;5033442;28;20562;-70
2023/10/07 12:47:44;;;;;;;4.90;4.47;;;41.50;24.40;;;;;;5034167;28;20437;-70
2023/10/07 12:50:29;;;;;;;3.80;2.83;;;40.70;25.00;;;;;;5035900;28;20377;-70
2023/10/07 12:52:57;;;;;;;6.27;4.03;;;38.90;25.90;;;;;;5038159;28;20421;-69
2023/10/07 12:55:29;;;;;;;3.77;3.40;;;37.00;27.30;;;;;;5040029;28;20553;-69
2023/10/07 12:57:55;;;;;;;4.30;2.60;;;35.10;29.00;;;;;;5041061;28;20414;-69
2023/10/07 13:00:23;;;;;;;3.33;2.57;;;34.50;30.60;;;;;;5039897;28;20406;-68
2023/10/07 13:02:50;;;;;;;3.70;2.60;;;35.40;31.70;;;;;;5038698;28;20171;-69
2023/10/07 13:05:18;;;;;;;2.83;2.23;;;37.20;30.80;;;;;;5037936;28;20427;-72
2023/10/07 13:07:48;;;;;;;5.10;3.67;;;38.60;29.40;;;;;;5038482;28;20402;-70
2023/10/07 13:10:17;;;;;;;5.60;5.03;;;39.90;28.70;;;;;;5040074;28;20427;-70
2023/10/07 13:12:43;;;;;;;4.70;3.53;;;40.60;27.40;;;;;;5040602;28;20422;-70
2023/10/07 13:15:15;;;;;;;4.63;3.23;;;41.50;26.50;;;;;;5023138;28;20801;-69
2023/10/07 13:17:45;;;;;;;6.00;3.43;;;42.90;26.50;;;;;;5042280;28;20465;-69
2023/10/07 13:20:20;;;;;;;6.60;6.00;;;44.10;24.50;;;;;;5040615;28;20422;-70
2023/10/07 13:22:46;;;;;;;6.23;4.10;;;44.90;24.20;;;;;;5038798;28;20379;-70
2023/10/07 13:25:13;;;;;;;4.63;3.13;;;44.20;23.50;;;;;;5039565;28;20438;-70
2023/10/07 13:27:39;;;;;;;2.80;2.33;;;44.10;24.20;;;;;;5041553;28;20414;-69
2023/10/07 13:30:11;;;;;;;3.20;2.90;;;44.30;24.70;;;;;;5038621;28;20833;-69
2023/10/07 13:32:40;;;;;;;2.40;2.20;;;43.90;24.10;;;;;;5041267;28;20780;-70
2023/10/07 13:35:09;;;;;;;3.70;2.53;;;43.10;24.30;;;;;;5043653;28;20377;-69
2023/10/07 13:37:37;;;;;;;3.63;2.83;;;43.90;25.30;;;;;;5043355;28;20432;-70
2023/10/07 13:40:07;;;;;;;4.20;3.13;;;44.90;25.10;;;;;;5041681;28;20480;-70
2023/10/07 13:42:35;;;;;;;3.33;3.03;;;45.80;24.70;;;;;;5043397;28;20466;-70
2023/10/07 13:45:08;;;;;;;3.37;3.10;;;46.20;23.80;;;;;;5041136;28;20385;-70
2023/10/07 13:47:36;;;;;;;3.17;2.87;;;46.50;24.00;;;;;;5041843;28;20418;-70